Bramon, Sweden

4:15 PM CEST on July 24, 2016 (GMT +0200)
Alno Aktervagen 8 | | Change Station

Elev 253 ft 62.44 °N, 17.42 °E | Updated 13 seconds ago

Clear
Clear
77.2 °F
Feels Like 79 °F
N
5.4
Wind Variable Wind from South
Gusts 6.9 mph

Today
High -- | Low -- °F
--% Chance of Precip.
Yesterday
High -- | Low -- °F
Precip. -- in
Pressure 30.09 in
Visibility -9999.0 miles
Clouds
Heat Index 79 °F
Dew Point 63 °F
Humidity 62%
Rainfall 0.00 in
Snow Depth Not available.
3:52 AM 9:56 PM
Waning Gibbous, 76% visible
METAR ESNN 241350Z 13007KT CAVOK 21/17 Q1019
Pressure 30.09 in
Visibility -9999.0 miles
Clouds
Heat Index 79 °F
Dew Point 63 °F
Humidity 62%
Rainfall 0.00 in
Snow Depth Not available.
3:52 AM 9:56 PM
Waning Gibbous, 76% visible
METAR ESNN 241350Z 13007KT CAVOK 21/17 Q1019

10-Day Weather Forecast

×

Almanac

Astronomy

Jul. 24, 2016 Rise Set
Actual Time
Civil Twilight
Nautical Twilight
Astronomical Twilight
Moon
Length of Visible Light
Length of Day
Tomorrow will be .
, % of the Moon is Illuminated

Today's Extremes

Country Highs Country Lows

Community

WunderPhotos

Upload Photos

1,927,058 photos uploaded!

WunderBlog® & News

Nearby

Air Quality

  Air Quality AQ Index Pollutant
Not available.

Snow Depth

Station Depth Elevation

Earthquake Activity

City Distance Mag. Time & Date
Minimum magnitude displayed is 2.5.

Coastal Water Temperatures

Place Temperature

Stations

Nearby Weather Stations

Station Location Temp. Windchill Dew Point Humidity Wind Precip. Elev Updated Type